ブリスベン の空港の天気 - METARとTAF

ブリスベン空港 ( YBBN / BNE ) - オーストラリア クイーンズランド州ブリスベン
飛行場実況気象(Metar)
観測時間09/28 10:30 AEST (09/28 00:30 UTC)
風向・風速北北東 5m/s
視程10km以上
天気現象
全天の8割程度の雲 雲底高度 760m
全天の8割程度の雲 雲底高度 7620m
気温23℃
湿度73%
気圧1013hPa
METARYBBN 280030Z 02009KT 9999 BKN025 BKN250 23/18 Q1013
過去の天気等 Google飛行場航空写真 Wunderground天気予報

過去48時間のMETAR

飛行場予報(TAF)
発表時間: 9/28 09:14 AEST (9/27 23:14 UTC)
予報対象時間: 28日10時 AEST ~ 29日16時 AEST
風向・風速北北西 5m/s
視程10km以上
少しの雲 雲底高度 760m
28日12時 AEST から
風向・風速北 7m/s
視程10km以上
天気現象弱いしゅう雨
全天の4割程度の雲 雲底高度 910m
28日19時 AEST から
風向・風速北北西 4m/s
視程10km以上
天気現象運行に影響にある天気現象が終了
少しの雲 雲底高度 240m
全天の4割程度の雲 雲底高度 460m
29日1時 AEST から
風向・風速西南西 5m/s
視程10km以上
なし
28日13時 AEST ~ 28日19時 AEST に 確率 40% で一時的に
風向・風速不定 10m/s 瞬間風速 23m/s
視程1000m
天気現象雷雨ひょう
全天の8割程度の雲 雲底高度 300m
全天の4割程度の積乱雲 雲底高度 910m
TAF YBBN 272314Z 2800/2906 34010KT 9999 FEW025
FM280200 01014KT 9999 -SHRA SCT030
FM280900 33008KT 9999 NSW FEW008 SCT015
FM281500 25010KT CAVOK
PROB40 TEMPO 2803/2809 VRB20G45KT 1000 TSRAGR BKN010 SCT030CB